Time;durP1;ratioP1;P1;durP2;ratioP2;P2;SDS_P1;SDS_P2;PMS_P1;PMS_P2;Temp;Humidity;BMP_temperature;BMP_pressure;BME280_temperature;BME280_humidity;BME280_pressure;Samples;Min_cycle;Max_cycle;Signal;HPM_P1;HPM_P2
2022/03/03 00:01:00;;;;;;;9.2;6.9;;;;;;;3.48;60.77246;938.9031;;;;
2022/03/03 00:03:30;;;;;;;10.5;7.2;;;;;;;3.2;61.10352;938.9189;;;;
2022/03/03 00:05:56;;;;;;;9.4;6.7;;;;;;;2.79;62.40039;938.942;;;;
2022/03/03 00:08:23;;;;;;;11;7.2;;;;;;;2.52;63.0791;938.8783;;;;
2022/03/03 00:10:51;;;;;;;10.3;7.2;;;;;;;2.47;63.50781;938.9486;;;;
2022/03/03 00:13:28;;;;;;;9.6;6.1;;;;;;;2.43;62.68457;939.0183;;;;
2022/03/03 00:16:15;;;;;;;7.4;5.3;;;;;;;2.35;62.37988;939.024;;;;
2022/03/03 00:18:53;;;;;;;7.5;5.6;;;;;;;2.33;62.36719;939.0244;;;;
2022/03/03 00:21:30;;;;;;;8.3;5.7;;;;;;;2.24;62.67871;939.0011;;;;
2022/03/03 00:24:07;;;;;;;9.4;6;;;;;;;2.34;62.15625;939.0327;;;;
2022/03/03 00:26:45;;;;;;;9.2;6.1;;;;;;;2.37;61.75488;938.9636;;;;
2022/03/03 00:29:18;;;;;;;8.2;6;;;;;;;2.38;62.53125;938.9322;;;;
2022/03/03 00:31:59;;;;;;;10;5.6;;;;;;;2.46;61.9375;939.0031;;;;
2022/03/03 00:40:19;;;;;;;8.8;5.4;;;;;;;2.04;62.41309;938.9522;;;;
2022/03/03 00:42:44;;;;;;;8.1;5.4;;;;;;;1.93;63.24609;938.798;;;;
2022/03/03 00:45:26;;;;;;;9.8;6;;;;;;;1.84;64.00586;938.9787;;;;
2022/03/03 00:47:51;;;;;;;10.3;5.4;;;;;;;1.83;64.30664;938.9886;;;;
2022/03/03 00:50:17;;;;;;;8.7;5.8;;;;;;;1.89;64.08203;938.9472;;;;
2022/03/03 00:52:42;;;;;;;9.1;5.7;;;;;;;1.94;63.89844;938.994;;;;
2022/03/03 00:55:12;;;;;;;8.8;5.1;;;;;;;1.96;63.81152;939.0058;;;;
2022/03/03 00:57:41;;;;;;;10.2;6;;;;;;;1.92;63.95117;939.0371;;;;
2022/03/03 01:00:18;;;;;;;9.4;5;;;;;;;1.79;64.37793;939.0139;;;;
2022/03/03 01:02:42;;;;;;;6.7;4.6;;;;;;;1.59;65.08789;938.9242;;;;
2022/03/03 01:05:15;;;;;;;6.5;4.3;;;;;;;1.61;64.94336;938.9316;;;;
2022/03/03 01:07:45;;;;;;;5.8;4.4;;;;;;;1.51;64.98535;938.9254;;;;
2022/03/03 01:10:10;;;;;;;5.1;3.6;;;;;;;1.41;65.09375;938.9194;;;;
2022/03/03 01:12:35;;;;;;;6.8;4.3;;;;;;;1.33;65.49414;938.91;;;;
2022/03/03 01:15:00;;;;;;;6.9;4.2;;;;;;;1.44;65.32129;938.8869;;;;
2022/03/03 01:17:28;;;;;;;5;4;;;;;;;1.31;65.56836;938.8094;;;;
2022/03/03 01:19:53;;;;;;;6.3;4.3;;;;;;;1.23;66.01563;938.8083;;;;
2022/03/03 01:22:21;;;;;;;6.9;3.7;;;;;;;1.25;65.77246;938.8044;;;;
2022/03/03 01:24:47;;;;;;;5.5;3.7;;;;;;;1.25;65.4375;938.8201;;;;
2022/03/03 01:27:15;;;;;;;6.7;3.8;;;;;;;1.29;65.08496;938.7209;;;;
2022/03/03 01:29:40;;;;;;;5.8;3.6;;;;;;;1.29;65.00781;938.7704;;;;
2022/03/03 01:32:08;;;;;;;6.7;4.1;;;;;;;1.27;64.71387;938.7216;;;;
2022/03/03 01:34:33;;;;;;;4.8;3.5;;;;;;;1.33;64.64355;938.7335;;;;
2022/03/03 01:37:04;;;;;;;13.6;4.8;;;;;;;1.42;64.43555;938.7851;;;;
2022/03/03 01:39:35;;;;;;;7.2;4.4;;;;;;;1.43;64.42676;938.7495;;;;
2022/03/03 01:42:02;;;;;;;6.5;4.2;;;;;;;1.55;64.41016;938.7978;;;;
2022/03/03 01:44:27;;;;;;;4.3;3.4;;;;;;;1.55;64.01758;938.7417;;;;
2022/03/03 01:46:55;;;;;;;6.4;4;;;;;;;1.51;63.86816;938.7299;;;;
2022/03/03 01:49:21;;;;;;;5.8;4.2;;;;;;;1.4;64.41016;938.6979;;;;
2022/03/03 01:51:46;;;;;;;7.1;4.8;;;;;;;1.27;65.09375;938.6127;;;;
2022/03/03 01:54:12;;;;;;;9.6;6.1;;;;;;;1.21;65.75391;938.5972;;;;
2022/03/03 01:56:37;;;;;;;6;4.4;;;;;;;1.11;66.16309;938.565;;;;
2022/03/03 01:59:02;;;;;;;5.1;3.9;;;;;;;1.04;66.48828;938.584;;;;
2022/03/03 02:01:31;;;;;;;5.1;4;;;;;;;0.9;66.75684;938.5963;;;;
2022/03/03 02:03:55;;;;;;;7.8;4.1;;;;;;;0.97;66.37598;938.5686;;;;
2022/03/03 02:06:21;;;;;;;5.8;3.8;;;;;;;1;66.0791;938.6703;;;;
2022/03/03 02:08:46;;;;;;;5.7;3.7;;;;;;;1.01;65.85742;938.6492;;;;
2022/03/03 02:11:17;;;;;;;4.8;3.3;;;;;;;1.1;64.75391;938.6186;;;;
2022/03/03 02:13:46;;;;;;;5.8;3.9;;;;;;;0.83;65.58301;938.5327;;;;
2022/03/03 02:16:18;;;;;;;5.5;3.2;;;;;;;0.78;66.02246;938.5604;;;;
2022/03/03 02:18:43;;;;;;;4.5;3.2;;;;;;;0.84;66.28809;938.5776;;;;
2022/03/03 02:21:12;;;;;;;5.3;3.4;;;;;;;0.75;66.88867;938.5396;;;;
2022/03/03 02:23:38;;;;;;;4.8;3.4;;;;;;;0.48;68.04883;938.5201;;;;
2022/03/03 02:26:08;;;;;;;5.3;3.3;;;;;;;0.35;68.86523;938.4754;;;;
2022/03/03 02:28:33;;;;;;;5.4;3.9;;;;;;;0.33;69.00684;938.4333;;;;
2022/03/03 02:30:58;;;;;;;6.3;3.8;;;;;;;0.43;68.75586;938.3795;;;;
2022/03/03 02:33:30;;;;;;;6.4;3.4;;;;;;;0.5;68.26563;938.3469;;;;
2022/03/03 02:39:53;;;;;;;8.4;3.5;;;;;;;0.66;67.43164;938.3175;;;;
2022/03/03 02:42:19;;;;;;;6.2;3.4;;;;;;;0.85;66.59082;938.3405;;;;
2022/03/03 02:44:43;;;;;;;6.1;3.4;;;;;;;0.83;66.68848;938.3317;;;;
2022/03/03 02:47:10;;;;;;;5.8;3.1;;;;;;;0.87;66.69531;938.2639;;;;
2022/03/03 02:49:35;;;;;;;7.5;3.4;;;;;;;0.88;66.59668;938.3358;;;;
2022/03/03 02:52:01;;;;;;;5.8;3.3;;;;;;;0.81;66.5625;938.2244;;;;
2022/03/03 02:54:26;;;;;;;4.3;3;;;;;;;0.62;67.01367;938.3613;;;;
2022/03/03 02:59:17;;;;;;;5.1;3.4;;;;;;;0.68;66.76563;938.2394;;;;
2022/03/03 03:01:42;;;;;;;4.7;2.9;;;;;;;0.73;66.39355;938.2205;;;;
2022/03/03 03:04:08;;;;;;;4.6;3.2;;;;;;;0.65;66.09082;938.2217;;;;
2022/03/03 03:06:34;;;;;;;4.1;2.8;;;;;;;0.52;66.34961;938.2504;;;;
2022/03/03 03:08:59;;;;;;;4.9;2.8;;;;;;;0.42;66.75781;938.2249;;;;
2022/03/03 03:11:24;;;;;;;5;2.8;;;;;;;0.49;66.25684;938.2227;;;;
2022/03/03 03:13:53;;;;;;;6;3.1;;;;;;;0.46;66.37402;938.188;;;;
2022/03/03 03:16:18;;;;;;;5.5;2.9;;;;;;;0.36;66.80371;938.2003;;;;
2022/03/03 03:18:45;;;;;;;5.8;3.3;;;;;;;0.26;67.32324;938.2255;;;;
2022/03/03 03:21:10;;;;;;;5.4;2.9;;;;;;;0.25;67.33301;938.2453;;;;
2022/03/03 03:23:36;;;;;;;4.5;3.3;;;;;;;0.22;67.71875;938.2989;;;;
2022/03/03 03:26:02;;;;;;;6.2;3.3;;;;;;;0.29;68.06445;938.3233;;;;
2022/03/03 03:28:28;;;;;;;4.9;3.4;;;;;;;0.44;67.4541;938.2994;;;;
2022/03/03 03:30:53;;;;;;;8.5;3.7;;;;;;;0.44;67.45215;938.2231;;;;
2022/03/03 03:33:20;;;;;;;9;3.8;;;;;;;0.35;67.39355;938.3016;;;;
2022/03/03 03:35:45;;;;;;;9;4;;;;;;;0.27;67.69238;938.2971;;;;
2022/03/03 03:38:12;;;;;;;5.3;3;;;;;;;0.21;68.0293;938.2584;;;;
2022/03/03 03:40:37;;;;;;;5.7;3.1;;;;;;;0.12;68.37012;938.1833;;;;
2022/03/03 03:43:04;;;;;;;5.7;3.5;;;;;;;0.01;69.43457;938.1547;;;;
2022/03/03 03:45:31;;;;;;;4.7;3.1;;;;;;;0.06;69.61035;938.2751;;;;
2022/03/03 03:47:56;;;;;;;5.1;3.2;;;;;;;0.2;69.12012;938.2751;;;;
2022/03/03 03:50:21;;;;;;;5.2;3.7;;;;;;;0.32;68.43652;938.2133;;;;
2022/03/03 03:52:49;;;;;;;5.4;3.3;;;;;;;0.29;68.27637;938.1708;;;;
2022/03/03 03:55:14;;;;;;;5.9;3.3;;;;;;;0.36;67.84082;938.1674;;;;
2022/03/03 03:57:42;;;;;;;8.5;3.7;;;;;;;0.32;67.91309;938.1155;;;;
2022/03/03 04:02:31;;;;;;;4.1;3;;;;;;;0.04;69.01563;938.1592;;;;
2022/03/03 04:04:56;;;;;;;12.7;4.1;;;;;;;0.01;69.36719;938.1068;;;;
2022/03/03 04:07:23;;;;;;;12.3;3.8;;;;;;;0.12;68.68164;938.1646;;;;
2022/03/03 04:09:49;;;;;;;3.7;2.9;;;;;;;0.12;68.58203;938.2049;;;;
2022/03/03 04:12:18;;;;;;;4.6;2.8;;;;;;;0.11;68.61523;938.1658;;;;
2022/03/03 04:14:43;;;;;;;4.3;2.8;;;;;;;0.08;68.74414;938.1707;;;;
2022/03/03 04:17:16;;;;;;;6.6;3.6;;;;;;;0.06;69.05371;938.0647;;;;
2022/03/03 04:19:45;;;;;;;6.7;3.2;;;;;;;0;69.47754;938.0508;;;;
2022/03/03 04:22:10;;;;;;;3.4;3;;;;;;;-0.02;69.69531;938.0267;;;;
2022/03/03 04:24:42;;;;;;;8.1;3.7;;;;;;;-0.04;69.84863;938.1016;;;;
2022/03/03 04:27:12;;;;;;;7.9;4.6;;;;;;;-0.13;70.1123;938.1387;;;;
2022/03/03 04:29:37;;;;;;;14.6;7;;;;;;;-0.19;70.17969;938.1031;;;;
2022/03/03 04:32:03;;;;;;;13.5;6;;;;;;;-0.26;70.58105;938.1785;;;;
2022/03/03 04:34:27;;;;;;;11.3;5.8;;;;;;;-0.07;70.04297;938.0986;;;;
2022/03/03 04:36:54;;;;;;;9.8;5.6;;;;;;;0.03;69.57129;938.0742;;;;
2022/03/03 04:39:19;;;;;;;11.2;4.7;;;;;;;0.03;69.15918;938.0773;;;;
2022/03/03 04:41:44;;;;;;;8.4;4.8;;;;;;;-0.02;69.32813;938.0681;;;;
2022/03/03 04:44:09;;;;;;;8.5;4.6;;;;;;;-0.07;69.65527;938.0353;;;;
2022/03/03 04:46:34;;;;;;;5.8;3.7;;;;;;;-0.22;70.14355;938.0929;;;;
2022/03/03 04:49:01;;;;;;;4.6;3.2;;;;;;;-0.33;70.60254;938.0293;;;;
2022/03/03 04:51:24;;;;;;;6.2;3.3;;;;;;;-0.42;70.74316;938.0334;;;;
2022/03/03 04:53:50;;;;;;;4.7;2.9;;;;;;;-0.36;70.46387;937.9013;;;;
2022/03/03 04:56:16;;;;;;;3.8;2.3;;;;;;;-0.38;70.18164;937.8344;;;;
2022/03/03 04:58:40;;;;;;;4.3;2.9;;;;;;;-0.43;70.44141;937.8881;;;;
2022/03/03 05:01:08;;;;;;;3.7;2.7;;;;;;;-0.37;69.86133;937.9447;;;;
2022/03/03 05:03:34;;;;;;;4.7;3.3;;;;;;;-0.31;70.85156;937.7889;;;;
2022/03/03 05:05:59;;;;;;;9.7;3.7;;;;;;;-0.39;71.51563;937.8122;;;;
2022/03/03 05:08:28;;;;;;;6.7;3.2;;;;;;;-0.32;70.14746;937.8636;;;;
2022/03/03 05:10:58;;;;;;;9.4;3.8;;;;;;;-0.28;69.49707;937.7845;;;;
2022/03/03 05:13:24;;;;;;;5.4;3.3;;;;;;;-0.16;68.48047;937.7852;;;;
2022/03/03 05:16:03;;;;;;;4.3;2.8;;;;;;;-0.12;68.18848;937.6848;;;;
2022/03/03 05:18:27;;;;;;;5.4;3.4;;;;;;;-0.08;68.41602;937.7083;;;;
2022/03/03 05:20:52;;;;;;;6.7;3.4;;;;;;;-0.11;68.45605;937.7316;;;;
2022/03/03 05:23:19;;;;;;;5.7;3.9;;;;;;;-0.11;68.37793;937.7494;;;;
2022/03/03 05:25:53;;;;;;;6.1;3.3;;;;;;;-0.13;68.38477;937.6652;;;;
2022/03/03 05:28:33;;;;;;;3.9;3;;;;;;;-0.17;68.51367;937.5956;;;;
2022/03/03 05:30:55;;;;;;;7.3;3.1;;;;;;;-0.24;68.70215;937.5697;;;;
2022/03/03 05:33:24;;;;;;;6.9;3.1;;;;;;;-0.35;68.96289;937.5742;;;;
2022/03/03 05:35:53;;;;;;;11.5;3.7;;;;;;;-0.33;68.91016;937.5242;;;;
2022/03/03 05:38:21;;;;;;;5.4;3.1;;;;;;;-0.38;68.93457;937.6163;;;;
2022/03/03 05:40:47;;;;;;;8.3;4;;;;;;;-0.37;69.84863;937.6456;;;;
2022/03/03 05:43:12;;;;;;;8.8;4.6;;;;;;;-0.43;69.88477;937.6198;;;;
2022/03/03 05:45:39;;;;;;;6.7;4.3;;;;;;;-0.48;69.81055;937.6785;;;;
2022/03/03 05:48:04;;;;;;;10.9;4.3;;;;;;;-0.54;69.87793;937.6849;;;;
2022/03/03 05:50:31;;;;;;;16.4;4.9;;;;;;;-0.44;69.87207;937.7541;;;;
2022/03/03 05:52:59;;;;;;;11.1;5.1;;;;;;;-0.37;69.60449;937.741;;;;
2022/03/03 05:55:21;;;;;;;10.4;4.9;;;;;;;-0.41;69.47559;937.7452;;;;
2022/03/03 05:57:47;;;;;;;13.2;5.7;;;;;;;-0.43;69.74023;937.712;;;;
2022/03/03 06:00:12;;;;;;;14.1;5.7;;;;;;;-0.44;70.02637;937.6669;;;;
2022/03/03 06:02:41;;;;;;;13.5;6.6;;;;;;;-0.34;69.53027;937.6877;;;;
2022/03/03 06:05:05;;;;;;;18.6;7.5;;;;;;;-0.36;69.57422;937.7161;;;;
2022/03/03 06:07:34;;;;;;;18.7;8.3;;;;;;;-0.38;69.50391;937.7307;;;;
2022/03/03 06:09:59;;;;;;;14.6;7.2;;;;;;;-0.43;69.62695;937.7173;;;;
2022/03/03 06:12:32;;;;;;;18.3;7.6;;;;;;;-0.39;69.6123;937.7206;;;;
2022/03/03 06:15:02;;;;;;;14.6;7.3;;;;;;;-0.35;69.39746;937.66;;;;
2022/03/03 06:17:35;;;;;;;16.6;9.1;;;;;;;-0.36;69.50684;937.7871;;;;
2022/03/03 06:20:02;;;;;;;19.4;9.3;;;;;;;-0.38;69.66016;937.7964;;;;
2022/03/03 06:22:27;;;;;;;15;8.2;;;;;;;-0.39;69.87891;937.7769;;;;
2022/03/03 06:24:57;;;;;;;12.6;5.4;;;;;;;-0.34;69.91016;937.7796;;;;
2022/03/03 06:27:22;;;;;;;9.9;4.9;;;;;;;0.22;68.16309;937.7428;;;;
2022/03/03 06:29:51;;;;;;;9;4.3;;;;;;;0.95;65.29004;937.7612;;;;
2022/03/03 06:32:16;;;;;;;8.4;3.9;;;;;;;1.37;62.90723;937.7258;;;;
2022/03/03 06:34:46;;;;;;;9.7;3.8;;;;;;;1.83;61.31934;937.6845;;;;
2022/03/03 06:37:13;;;;;;;9.5;3.5;;;;;;;2.19;60.17285;937.6481;;;;
2022/03/03 06:39:38;;;;;;;8.4;3.6;;;;;;;2.12;59.01074;937.6188;;;;
2022/03/03 06:42:07;;;;;;;6.6;3.3;;;;;;;2.46;58.50977;937.5692;;;;
2022/03/03 06:44:31;;;;;;;20.9;9.1;;;;;;;3.4;56.74121;937.5645;;;;
2022/03/03 06:47:00;;;;;;;22.1;11;;;;;;;4;53.50488;937.5249;;;;
2022/03/03 06:49:24;;;;;;;18.9;9.2;;;;;;;3.54;53.92871;937.4836;;;;
2022/03/03 06:51:50;;;;;;;18.2;9.2;;;;;;;4.61;52.62207;937.4386;;;;
2022/03/03 06:54:15;;;;;;;11.8;6.2;;;;;;;4.83;51.63574;937.4612;;;;
2022/03/03 06:56:45;;;;;;;10.6;8;;;;;;;3.74;52.20117;937.3247;;;;
2022/03/03 06:59:11;;;;;;;15.8;8.1;;;;;;;3.33;53.17383;937.4158;;;;
2022/03/03 07:01:43;;;;;;;13.6;6.3;;;;;;;3.31;56.38086;937.4252;;;;
2022/03/03 07:04:08;;;;;;;6.5;4.5;;;;;;;3.53;54.93848;937.4205;;;;
2022/03/03 07:06:36;;;;;;;11.7;4.7;;;;;;;3.91;52.68359;937.4014;;;;
2022/03/03 07:09:05;;;;;;;10.4;4.8;;;;;;;3.94;52.34863;937.3275;;;;
2022/03/03 07:11:31;;;;;;;12.2;6.1;;;;;;;4.13;52.33887;937.3285;;;;
2022/03/03 07:13:55;;;;;;;14.9;6;;;;;;;4.33;52.21582;937.3395;;;;
2022/03/03 07:16:24;;;;;;;8.7;5.7;;;;;;;4.71;51.59961;937.3226;;;;
2022/03/03 07:18:49;;;;;;;8.8;5.2;;;;;;;4.67;51.02051;937.2631;;;;
2022/03/03 07:21:23;;;;;;;10.6;4.9;;;;;;;4.83;50.41895;937.2537;;;;
2022/03/03 07:23:48;;;;;;;8.2;4.3;;;;;;;4.84;49.57617;937.1642;;;;
2022/03/03 07:26:18;;;;;;;8.9;4.2;;;;;;;5;48.77246;937.1522;;;;
2022/03/03 07:28:42;;;;;;;6.2;4.1;;;;;;;5.27;48.28223;937.075;;;;
2022/03/03 07:31:10;;;;;;;7;4;;;;;;;5.19;47.86914;937.1295;;;;
2022/03/03 07:33:38;;;;;;;8;4;;;;;;;4.77;48.50879;936.983;;;;
2022/03/03 07:36:06;;;;;;;9.1;5;;;;;;;4.87;48.35156;937.0933;;;;
2022/03/03 07:38:32;;;;;;;9.5;4.2;;;;;;;5.05;47.13184;937.0735;;;;
2022/03/03 07:40:57;;;;;;;8.4;4.2;;;;;;;5.41;46.85449;937.0734;;;;
2022/03/03 07:43:22;;;;;;;5.9;3.6;;;;;;;5.95;45.47949;936.8844;;;;
2022/03/03 07:45:52;;;;;;;8;3.9;;;;;;;6.28;44.94922;936.9464;;;;
2022/03/03 07:48:17;;;;;;;9.7;4.1;;;;;;;6.33;44.34375;936.8756;;;;
2022/03/03 07:50:42;;;;;;;5.4;3.6;;;;;;;5.85;44.37305;936.8391;;;;
2022/03/03 07:53:11;;;;;;;17.3;5.4;;;;;;;5.88;45.8457;936.8405;;;;
2022/03/03 07:55:35;;;;;;;14.9;3.9;;;;;;;7.17;43.06055;936.8092;;;;
2022/03/03 07:58:03;;;;;;;6.2;3.2;;;;;;;7.11;42.02344;936.736;;;;
2022/03/03 08:00:28;;;;;;;4.9;3;;;;;;;7.13;41.86816;936.6652;;;;
2022/03/03 08:02:59;;;;;;;5.4;2.6;;;;;;;8.57;39.29102;936.6195;;;;
2022/03/03 08:05:24;;;;;;;8.7;3.2;;;;;;;8.14;39.66016;936.4672;;;;
2022/03/03 08:07:49;;;;;;;9;3.5;;;;;;;9.11;37.90723;936.5592;;;;
2022/03/03 08:10:16;;;;;;;5.2;2.5;;;;;;;11.34;33.93945;936.4373;;;;
2022/03/03 08:12:46;;;;;;;8;3.2;;;;;;;10.58;34.25684;936.4039;;;;
2022/03/03 08:15:11;;;;;;;5.7;2.2;;;;;;;12.74;32.44238;936.3272;;;;
2022/03/03 08:17:40;;;;;;;6.9;2.6;;;;;;;13.61;29.43652;936.2439;;;;
2022/03/03 08:20:04;;;;;;;5.4;2.6;;;;;;;14.08;28.65137;936.3025;;;;
2022/03/03 08:22:32;;;;;;;12.9;4.3;;;;;;;13.22;30.20313;936.3781;;;;
2022/03/03 08:24:57;;;;;;;3.8;2.1;;;;;;;13.72;28.19043;936.3019;;;;
2022/03/03 08:27:22;;;;;;;4.6;1.9;;;;;;;11.69;31.02441;936.2857;;;;
2022/03/03 08:29:50;;;;;;;6.8;2.4;;;;;;;13.08;28.83789;936.2263;;;;
2022/03/03 08:32:16;;;;;;;4.7;2.3;;;;;;;11.86;30.53223;936.1478;;;;
2022/03/03 08:34:46;;;;;;;3.5;1.9;;;;;;;13.3;29.41602;936.0955;;;;
2022/03/03 08:37:12;;;;;;;6.7;2.3;;;;;;;13.6;28.04395;935.9551;;;;
2022/03/03 08:39:38;;;;;;;4.9;1.7;;;;;;;14.17;27.05664;935.9775;;;;
2022/03/03 08:42:06;;;;;;;3.3;1.5;;;;;;;14.75;26.06641;935.9158;;;;
2022/03/03 08:44:30;;;;;;;3.2;1.4;;;;;;;17.28;24.17676;935.8033;;;;
2022/03/03 08:46:59;;;;;;;2.3;1.5;;;;;;;18.73;23.03516;935.8072;;;;
2022/03/03 08:49:24;;;;;;;1.6;1.4;;;;;;;19.3;21.08398;935.7516;;;;
2022/03/03 08:51:57;;;;;;;8.8;2.8;;;;;;;20.13;20.20215;935.7469;;;;
2022/03/03 08:54:19;;;;;;;2.2;1.4;;;;;;;18.49;21.32422;935.7587;;;;
2022/03/03 08:56:45;;;;;;;5.2;1.8;;;;;;;16.35;22.5293;935.7617;;;;
2022/03/03 08:59:12;;;;;;;5.2;1.6;;;;;;;15.13;24.83105;935.6964;;;;
2022/03/03 09:01:37;;;;;;;2.5;1.3;;;;;;;16.08;23.74023;935.6743;;;;
2022/03/03 09:04:04;;;;;;;6.6;1.7;;;;;;;16.94;23.33594;935.6647;;;;
2022/03/03 09:06:31;;;;;;;2.8;1.3;;;;;;;19.38;21.89258;935.553;;;;
2022/03/03 09:08:58;;;;;;;2.3;1.1;;;;;;;20.53;19.97461;935.528;;;;
2022/03/03 09:11:24;;;;;;;5.6;1.7;;;;;;;20.74;18.99121;935.4807;;;;
2022/03/03 09:13:53;;;;;;;4.7;1.3;;;;;;;19.9;19.08398;935.3326;;;;
2022/03/03 09:16:21;;;;;;;3.5;1.4;;;;;;;19.8;19.25391;935.3462;;;;
2022/03/03 09:18:52;;;;;;;4.6;1.6;;;;;;;21.99;18.00195;935.3624;;;;
2022/03/03 09:21:25;;;;;;;4.4;1.9;;;;;;;23.96;16.48047;935.2988;;;;
2022/03/03 09:23:50;;;;;;;6.9;2.1;;;;;;;23.69;15.94043;935.2725;;;;
2022/03/03 09:26:20;;;;;;;3.2;1.1;;;;;;;22.51;16.42676;935.2558;;;;
2022/03/03 09:28:45;;;;;;;2.1;1.1;;;;;;;21.43;17.59277;935.2609;;;;
2022/03/03 09:31:17;;;;;;;2.3;1.5;;;;;;;21.35;17.58984;935.2505;;;;
2022/03/03 09:33:45;;;;;;;2.6;1.2;;;;;;;23.35;15.99902;935.2186;;;;
2022/03/03 09:36:10;;;;;;;2.9;1.8;;;;;;;23.85;15.92383;935.183;;;;
2022/03/03 09:38:37;;;;;;;2.3;1.2;;;;;;;24.94;15.19531;935.1618;;;;
2022/03/03 09:41:03;;;;;;;2;1.2;;;;;;;25.61;14.82813;935.1392;;;;
2022/03/03 09:43:30;;;;;;;2.2;1.2;;;;;;;24.45;15.48535;935.1906;;;;
2022/03/03 09:45:55;;;;;;;5.2;1.3;;;;;;;24.86;15.67578;935.0836;;;;
2022/03/03 09:48:24;;;;;;;2.1;1.1;;;;;;;25.31;15.24316;935.09;;;;
2022/03/03 09:50:49;;;;;;;2.1;1.1;;;;;;;24.58;15.3125;935.1626;;;;
2022/03/03 09:53:17;;;;;;;2.5;1.4;;;;;;;23.82;16.00488;935.1711;;;;
2022/03/03 09:55:41;;;;;;;3.3;1.8;;;;;;;21.56;19.15527;935.2502;;;;
2022/03/03 09:58:07;;;;;;;2.7;1.3;;;;;;;20.9;19.3252;935.2454;;;;
2022/03/03 10:00:36;;;;;;;1.9;1.3;;;;;;;19.48;20.9873;935.2687;;;;
2022/03/03 10:02:57;;;;;;;2;1.4;;;;;;;18.82;22.44629;935.2952;;;;
2022/03/03 10:05:22;;;;;;;2.5;1.7;;;;;;;18.17;21.66895;935.2358;;;;
2022/03/03 10:07:49;;;;;;;2.8;2.2;;;;;;;17.69;21.65723;935.2352;;;;
2022/03/03 10:10:17;;;;;;;4;2.7;;;;;;;16.7;22.07227;935.2291;;;;
2022/03/03 10:12:39;;;;;;;5.1;2.6;;;;;;;17.37;21.89648;935.1617;;;;
2022/03/03 10:15:09;;;;;;;4.8;3.2;;;;;;;18.67;20.35645;935.0789;;;;
2022/03/03 10:17:34;;;;;;;5.4;3.1;;;;;;;19.3;19.89648;935.1072;;;;
2022/03/03 10:20:02;;;;;;;6.2;3.2;;;;;;;18.68;19.76367;935.0754;;;;
2022/03/03 10:22:24;;;;;;;4.1;2.9;;;;;;;18.86;19.89941;935.0289;;;;
2022/03/03 10:24:54;;;;;;;4;3;;;;;;;18.73;19.85938;934.9683;;;;
2022/03/03 10:27:18;;;;;;;3.3;2.6;;;;;;;18.34;20.46875;934.9197;;;;
2022/03/03 10:29:47;;;;;;;4.2;3;;;;;;;18.42;21.55371;934.9034;;;;
2022/03/03 10:32:19;;;;;;;4;2.3;;;;;;;18.12;20.66797;934.8524;;;;
2022/03/03 10:34:53;;;;;;;4.9;2.8;;;;;;;18.33;20.34082;934.8878;;;;
2022/03/03 10:37:17;;;;;;;5;2.8;;;;;;;18.76;19.97656;934.878;;;;
2022/03/03 10:39:42;;;;;;;4.3;3.2;;;;;;;18.49;19.62695;934.8339;;;;
2022/03/03 10:42:07;;;;;;;4.4;3.1;;;;;;;19.42;19.73828;934.8697;;;;
2022/03/03 10:44:34;;;;;;;5.5;3.2;;;;;;;19.19;19.53027;934.81;;;;
2022/03/03 10:46:59;;;;;;;5;3.1;;;;;;;19.93;19.08496;934.8783;;;;
2022/03/03 10:49:28;;;;;;;5;3.2;;;;;;;19.24;20.70898;934.7952;;;;
2022/03/03 10:51:53;;;;;;;4.9;3.5;;;;;;;19.21;19.2168;934.764;;;;
2022/03/03 10:54:22;;;;;;;4.7;2.9;;;;;;;19.05;19.31348;934.7189;;;;
2022/03/03 10:56:47;;;;;;;5.1;3.1;;;;;;;18.75;19.47559;934.6283;;;;
2022/03/03 10:59:17;;;;;;;5;3.2;;;;;;;18.62;19.33008;934.6764;;;;
2022/03/03 11:01:43;;;;;;;5.2;3.4;;;;;;;17.93;21.53027;934.6144;;;;
2022/03/03 11:04:14;;;;;;;4.5;3.4;;;;;;;18.26;20.97656;934.6033;;;;
2022/03/03 11:06:39;;;;;;;4.3;3;;;;;;;19.1;19.71191;934.589;;;;
2022/03/03 11:09:08;;;;;;;5;3.2;;;;;;;19.24;19.8584;934.5722;;;;
2022/03/03 11:11:34;;;;;;;4.3;3.3;;;;;;;19.83;19.97852;934.5325;;;;
2022/03/03 11:13:59;;;;;;;4.1;2.9;;;;;;;20.09;20.25879;934.4797;;;;
2022/03/03 11:16:29;;;;;;;5.7;3.4;;;;;;;19.42;21.82422;934.5129;;;;
2022/03/03 11:18:59;;;;;;;4;3.1;;;;;;;19.01;21.38477;934.3549;;;;
2022/03/03 11:21:24;;;;;;;5.5;3.2;;;;;;;18.9;21.36816;934.4847;;;;
2022/03/03 11:23:54;;;;;;;5.8;3.3;;;;;;;18.48;23.02148;934.4551;;;;
2022/03/03 11:26:19;;;;;;;4.8;3.1;;;;;;;18.08;23.86035;934.4265;;;;
2022/03/03 11:28:46;;;;;;;5.7;3.3;;;;;;;18.02;22.42871;934.3931;;;;
2022/03/03 11:31:10;;;;;;;5;3.6;;;;;;;18.39;22.67969;934.3492;;;;
2022/03/03 11:33:41;;;;;;;5.6;3.2;;;;;;;18.24;22.98633;934.3187;;;;
2022/03/03 11:36:00;;;;;;;4.8;3.4;;;;;;;18.92;21.40332;934.3736;;;;
2022/03/03 11:38:26;;;;;;;5;3.6;;;;;;;19.99;21.10645;934.2605;;;;
2022/03/03 11:40:51;;;;;;;7.3;3.7;;;;;;;20.35;20.17773;934.252;;;;
2022/03/03 11:43:22;;;;;;;5.2;3.8;;;;;;;20.84;20.7959;934.2078;;;;
2022/03/03 11:45:51;;;;;;;6.3;4.2;;;;;;;20.75;20.58105;934.2592;;;;
2022/03/03 11:48:16;;;;;;;6.5;4;;;;;;;21.31;19.86914;934.1431;;;;
2022/03/03 11:50:40;;;;;;;6.6;4.5;;;;;;;20.75;20.69727;934.0853;;;;
2022/03/03 11:53:05;;;;;;;7.8;4.4;;;;;;;20.91;19.52441;934.0561;;;;
2022/03/03 11:55:31;;;;;;;7.2;4.5;;;;;;;20.16;20.40137;934.0271;;;;
2022/03/03 11:57:56;;;;;;;6.8;4.7;;;;;;;19.99;20.5918;933.8929;;;;
2022/03/03 12:00:21;;;;;;;8.7;4.5;;;;;;;19.67;20.75195;933.8926;;;;
2022/03/03 12:02:46;;;;;;;6.1;4.7;;;;;;;19.06;21.49219;933.9153;;;;
2022/03/03 12:05:12;;;;;;;7.1;4.2;;;;;;;20.5;20.45313;933.889;;;;
2022/03/03 12:07:37;;;;;;;5.8;4.7;;;;;;;20.74;19.48145;933.8477;;;;
2022/03/03 12:10:02;;;;;;;7.4;4.8;;;;;;;21.36;18.88867;933.8511;;;;
2022/03/03 12:12:27;;;;;;;7.1;5;;;;;;;22;18.18945;933.8325;;;;
2022/03/03 12:14:55;;;;;;;6.6;4.9;;;;;;;20.8;20.38477;933.6982;;;;
2022/03/03 12:17:20;;;;;;;11.5;5.1;;;;;;;20.13;21.88281;933.9045;;;;
2022/03/03 12:19:45;;;;;;;8.1;5.1;;;;;;;19.88;21.16992;933.8441;;;;
2022/03/03 12:22:10;;;;;;;8.8;5.5;;;;;;;19.24;21.61719;933.8351;;;;
2022/03/03 12:24:36;;;;;;;13.4;5.5;;;;;;;19.04;22.53906;933.8917;;;;
2022/03/03 12:27:02;;;;;;;9.5;5.8;;;;;;;18.98;22.5127;933.7723;;;;
2022/03/03 12:29:27;;;;;;;10.3;5.8;;;;;;;18.64;23.83203;933.8741;;;;
2022/03/03 12:31:55;;;;;;;8.8;6;;;;;;;20.08;21.45996;933.9467;;;;
2022/03/03 12:34:22;;;;;;;7.9;5.7;;;;;;;21.73;19.25586;933.7908;;;;
2022/03/03 12:36:47;;;;;;;7.9;5.9;;;;;;;21.52;19.71582;933.7542;;;;
2022/03/03 12:39:15;;;;;;;8.1;6.2;;;;;;;21.64;19.9668;933.6841;;;;
2022/03/03 12:41:40;;;;;;;9.2;6;;;;;;;22.5;18.78516;933.6275;;;;
2022/03/03 12:44:04;;;;;;;9.3;6;;;;;;;21.46;19.39648;933.5817;;;;
2022/03/03 12:46:31;;;;;;;9.4;6.8;;;;;;;21.76;19.4209;933.5522;;;;
2022/03/03 12:48:55;;;;;;;11.4;6.8;;;;;;;21.54;19.35352;933.5552;;;;
2022/03/03 12:51:23;;;;;;;10;6;;;;;;;21.9;19.06445;933.4581;;;;
2022/03/03 12:53:50;;;;;;;10.4;6.5;;;;;;;21.04;20.30176;933.4995;;;;
2022/03/03 12:56:15;;;;;;;10.8;6.3;;;;;;;22.18;18.83008;933.3722;;;;
2022/03/03 12:58:40;;;;;;;10.8;6.6;;;;;;;22.83;19.2334;933.4157;;;;
2022/03/03 13:01:05;;;;;;;8.2;6.5;;;;;;;22.21;20.13281;933.4295;;;;
2022/03/03 13:03:30;;;;;;;8.2;6.1;;;;;;;22.89;19.21191;933.3243;;;;
2022/03/03 13:05:57;;;;;;;12.2;6.9;;;;;;;22.33;19.02441;933.2882;;;;
2022/03/03 13:08:22;;;;;;;10.6;7;;;;;;;22.6;19.17676;933.3072;;;;
2022/03/03 13:10:47;;;;;;;10.2;7.2;;;;;;;22.62;19.48242;933.2877;;;;
2022/03/03 13:13:14;;;;;;;9;6.5;;;;;;;22.96;18.47559;933.2112;;;;
2022/03/03 13:15:47;;;;;;;7.8;5.9;;;;;;;22.81;18.9043;933.3145;;;;
2022/03/03 13:18:13;;;;;;;9;6.5;;;;;;;23.17;18.8252;933.3092;;;;
2022/03/03 13:20:46;;;;;;;12.4;7.2;;;;;;;21.28;21.07324;933.2395;;;;
2022/03/03 13:23:16;;;;;;;8.5;6.2;;;;;;;20.42;21.44141;933.1744;;;;
2022/03/03 13:25:42;;;;;;;9.4;6.7;;;;;;;19.63;22.32422;933.1412;;;;
2022/03/03 13:28:07;;;;;;;11.5;6.9;;;;;;;19.89;22.02246;933.2248;;;;
2022/03/03 13:30:32;;;;;;;9.2;6.5;;;;;;;20.05;22.18262;933.2598;;;;
2022/03/03 13:32:57;;;;;;;42.7;9.1;;;;;;;19.23;24.07422;933.2308;;;;
2022/03/03 13:35:23;;;;;;;9.3;6.8;;;;;;;18.66;23.79883;933.22;;;;
2022/03/03 13:37:47;;;;;;;11.7;6.9;;;;;;;18.77;24.08398;933.2281;;;;
2022/03/03 13:40:12;;;;;;;10.7;7.8;;;;;;;19.37;24.10547;933.2644;;;;
2022/03/03 13:42:37;;;;;;;13.6;7.8;;;;;;;20.13;22.80469;933.1883;;;;
2022/03/03 13:45:03;;;;;;;11.9;8.1;;;;;;;20.68;22.25977;933.1267;;;;
2022/03/03 13:47:30;;;;;;;13.3;8;;;;;;;21.18;21.7002;933.2131;;;;
2022/03/03 13:49:55;;;;;;;11.3;7.5;;;;;;;21.81;20.89941;933.0514;;;;
2022/03/03 13:52:21;;;;;;;15.5;8.8;;;;;;;22.7;20.13184;933.1342;;;;
2022/03/03 13:54:46;;;;;;;13;8.9;;;;;;;22.57;20.52441;933.1301;;;;
2022/03/03 13:57:13;;;;;;;13;8.4;;;;;;;21.81;20.50098;933.1344;;;;
2022/03/03 13:59:38;;;;;;;14;8.5;;;;;;;20.71;21.50195;933.1125;;;;
2022/03/03 14:02:03;;;;;;;11.3;7.7;;;;;;;21.21;21.3623;933.0733;;;;
2022/03/03 14:04:32;;;;;;;14.1;8.5;;;;;;;21.28;21.56543;933.0478;;;;
2022/03/03 14:06:57;;;;;;;12.9;9;;;;;;;20.98;21.83105;933.0148;;;;
2022/03/03 14:09:25;;;;;;;13.4;8.7;;;;;;;20.69;22.07422;933.0889;;;;
2022/03/03 14:11:50;;;;;;;14.9;9.6;;;;;;;19.63;23.2334;933.0514;;;;
2022/03/03 14:14:16;;;;;;;12.6;8.9;;;;;;;19.66;23.44531;933.0165;;;;
2022/03/03 14:16:41;;;;;;;13.9;9.5;;;;;;;19.05;24.14551;933.0549;;;;
2022/03/03 14:19:07;;;;;;;31.5;10.8;;;;;;;20.04;23.66406;932.9594;;;;
2022/03/03 14:21:33;;;;;;;11.9;9;;;;;;;19.07;24.82227;932.9338;;;;
2022/03/03 14:23:59;;;;;;;17.6;9.6;;;;;;;18.89;24.82324;932.9545;;;;
2022/03/03 14:26:24;;;;;;;14.6;10.1;;;;;;;18.48;24.9873;932.9741;;;;
2022/03/03 14:28:51;;;;;;;15;10.3;;;;;;;18.96;24.60645;932.8661;;;;
2022/03/03 14:31:16;;;;;;;18.3;10.5;;;;;;;18.8;24.92383;932.8786;;;;
2022/03/03 14:33:43;;;;;;;16;10.5;;;;;;;19.39;24.06055;932.9066;;;;
2022/03/03 14:36:08;;;;;;;15.9;10;;;;;;;18.81;24.64551;932.8912;;;;
2022/03/03 14:38:35;;;;;;;15.4;10.8;;;;;;;17.32;27.37988;932.7999;;;;
2022/03/03 14:41:00;;;;;;;17.2;11.1;;;;;;;16.82;27.45215;932.8322;;;;